Erdogan Senkaya — TCAB3 — position and weather

sailwx.info

Track history (hours):
 
Tides and Currents Weather Stations Pressure Air Temp Water Temp Dewpoint Dewpoint Depression Visibility Wind Speed Wind Dir Waves Ship Positions

Erdogan Senkaya

Last reported at 2017-Nov-24 22:00 UTC. Time now 2017-Nov-24 22:12 UTC.
Position N 37°55' E 023°33'.

Length 67 m; draft 5.3 m.

Type: Cargo ship. MMSI: 271002242.

Date/timePositionNaut miles runAvg speedWind from/ knotsBaromVisibWave heightAir tempDewpointWater temp
2017-Nov-24 22:00N 37°55' E 023°33'0 0.0
2017-Nov-24 21:31N 37°55' E 023°33'0 0.0
2017-Nov-24 21:01N 37°55' E 023°33'0 0.1
2017-Nov-24 20:31N 37°55' E 023°33'3 5.4
2017-Nov-24 20:01N 37°53' E 023°35'5 9.2
2017-Nov-24 19:31N 37°50' E 023°40'5 9.7
2017-Nov-24 19:01N 37°46' E 023°42'5 9.7
2017-Nov-24 18:28N 37°41' E 023°45'31 8.4
2017-Nov-24 14:44N 37°49' E 024°24'2 9.8
2017-Nov-24 14:30N 37°50' E 024°26'5 9.7
2017-Nov-24 13:58N 37°54' E 024°30'5 9.5
2017-Nov-24 13:29N 37°58' E 024°34'  
Track history (hours):
 
Tides and Currents Weather Stations Pressure Air Temp Water Temp Dewpoint Dewpoint Depression Visibility Wind Speed Wind Dir Waves Ship Positions

Erdogan Senkaya

Last reported at 2017-Nov-24 22:00 UTC. Time now 2017-Nov-24 22:12 UTC.
Position N 37°55' E 023°33'.

Length 67 m; draft 5.3 m.

Type: Cargo ship. MMSI: 271002242.

Date/timePositionNaut miles runAvg speedWind from/ knotsBaromVisibWave heightAir tempDewpointWater temp
2017-Nov-24 22:00N 37°55' E 023°33'0 0.0
2017-Nov-24 21:31N 37°55' E 023°33'0 0.0
2017-Nov-24 21:01N 37°55' E 023°33'0 0.1
2017-Nov-24 20:31N 37°55' E 023°33'3 5.4
2017-Nov-24 20:01N 37°53' E 023°35'5 9.2
2017-Nov-24 19:31N 37°50' E 023°40'5 9.7
2017-Nov-24 19:01N 37°46' E 023°42'5 9.7
2017-Nov-24 18:28N 37°41' E 023°45'31 8.4
2017-Nov-24 14:44N 37°49' E 024°24'2 9.8
2017-Nov-24 14:30N 37°50' E 024°26'5 9.7
2017-Nov-24 13:58N 37°54' E 024°30'5 9.5
2017-Nov-24 13:29N 37°58' E 024°34'  

Dump ship's entire track history